Time;durP1;ratioP1;P1;durP2;ratioP2;P2;SDS_P1;SDS_P2;PMS_P1;PMS_P2;Temp;Humidity;BMP_temperature;BMP_pressure;BME280_temperature;BME280_humidity;BME280_pressure;Samples;Min_cycle;Max_cycle;Signal;HPM_P1;HPM_P2
2022/01/19 00:01:16;;;;;;;7.80;6.28;;;;;;;-0.70;74.97;96164.50;4920095;29;20223;-85
2022/01/19 00:03:43;;;;;;;9.25;6.18;;;;;;;-0.71;74.99;96161.06;4919519;29;20568;-84
2022/01/19 00:06:11;;;;;;;9.60;5.70;;;;;;;-0.69;75.54;96169.63;4919503;29;20215;-84
2022/01/19 00:08:38;;;;;;;12.20;7.20;;;;;;;-0.64;75.99;96170.38;4919284;29;20196;-84
2022/01/19 00:11:05;;;;;;;8.10;6.20;;;;;;;-0.60;75.05;96186.63;4886400;29;20286;-84
2022/01/19 00:13:33;;;;;;;8.52;5.20;;;;;;;-0.60;74.90;96185.75;4871065;29;20203;-84
2022/01/19 00:15:59;;;;;;;7.05;5.10;;;;;;;-0.56;75.35;96184.84;4886337;29;20207;-84
2022/01/19 00:18:28;;;;;;;12.10;5.80;;;;;;;-0.56;74.76;96182.28;4919283;29;20192;-84
2022/01/19 00:41:06;;;;;;;10.93;5.53;;;;;;;-1.08;75.91;96206.47;4918745;29;20263;-84
2022/01/19 00:43:36;;;;;;;7.75;5.20;;;;;;;-1.06;75.85;96207.28;4918624;29;20200;-84
2022/01/19 00:46:03;;;;;;;9.38;5.70;;;;;;;-0.96;76.44;96206.22;4918597;29;20207;-84
2022/01/19 00:48:29;;;;;;;14.07;5.45;;;;;;;-0.93;75.26;96201.88;4871135;29;20211;-84
2022/01/19 00:50:57;;;;;;;9.90;6.25;;;;;;;-0.97;75.48;96202.81;4918909;29;20243;-84
2022/01/19 00:53:24;;;;;;;16.70;7.20;;;;;;;-0.97;75.70;96212.25;4918793;29;20199;-84
2022/01/19 00:55:51;;;;;;;9.43;6.82;;;;;;;-0.89;75.31;96218.13;4919137;29;20551;-84
2022/01/19 01:31:56;;;;;;;7.57;5.93;;;;;;;-1.37;78.23;96202.69;4917004;29;20205;-85
2022/01/19 01:34:23;;;;;;;12.68;6.63;;;;;;;-1.30;78.09;96196.56;4885437;29;20210;-84
2022/01/19 01:36:50;;;;;;;16.35;7.13;;;;;;;-1.28;78.47;96197.38;4919039;29;20191;-84
2022/01/19 01:39:17;;;;;;;9.80;6.70;;;;;;;-1.17;78.35;96198.91;4918724;29;20192;-84
2022/01/19 01:41:44;;;;;;;10.50;6.65;;;;;;;-0.99;77.62;96204.56;4917718;29;20589;-84
2022/01/19 01:44:11;;;;;;;11.55;6.55;;;;;;;-0.85;77.47;96206.91;4917761;29;20192;-84
2022/01/19 01:46:46;;;;;;;11.25;6.05;;;;;;;-0.93;76.22;96201.88;4917874;29;20547;-84
2022/01/19 01:49:21;;;;;;;8.63;6.13;;;;;;;-0.95;76.80;96185.59;4917817;29;20607;-84
2022/01/19 01:54:33;;;;;;;11.18;6.80;;;;;;;-1.06;76.56;96191.84;4917819;29;20266;-84
2022/01/19 02:03:44;;;;;;;10.93;5.72;;;;;;;-1.02;77.37;96183.16;4916618;29;20201;-84
2022/01/19 02:06:32;;;;;;;11.63;6.03;;;;;;;-1.10;76.71;96172.19;4917790;29;20195;-84
2022/01/19 02:09:06;;;;;;;9.32;5.50;;;;;;;-1.13;77.49;96160.22;4917831;29;20286;-84
2022/01/19 02:23:11;;;;;;;6.78;5.18;;;;;;;-1.10;76.21;96139.53;4820675;29;20213;-84
2022/01/19 02:25:42;;;;;;;8.38;5.13;;;;;;;-1.02;76.19;96139.38;4859291;29;20605;-84
2022/01/19 02:55:13;;;;;;;7.18;5.10;;;;;;;-1.23;75.86;96148.38;4914065;29;20580;-84
2022/01/19 02:57:41;;;;;;;12.43;5.85;;;;;;;-1.22;76.33;96144.91;4916951;29;20192;-84
2022/01/19 03:11:10;;;;;;;12.23;5.10;;;;;;;-1.14;75.97;96152.50;4920855;29;20194;-84
2022/01/19 03:13:37;;;;;;;6.68;4.68;;;;;;;-0.99;75.35;96136.75;4920491;29;20692;-84
2022/01/19 03:16:04;;;;;;;6.45;4.57;;;;;;;-0.96;74.87;96152.97;4920806;29;20229;-84
2022/01/19 03:18:31;;;;;;;8.15;5.47;;;;;;;-0.96;74.17;96142.69;4921057;29;20203;-84
2022/01/19 03:20:58;;;;;;;5.93;4.55;;;;;;;-0.91;74.37;96144.31;4920188;29;20713;-84
2022/01/19 03:23:25;;;;;;;10.20;5.45;;;;;;;-0.90;74.72;96152.00;4921257;29;20199;-84
2022/01/19 03:25:54;;;;;;;7.57;4.80;;;;;;;-0.93;74.11;96147.78;4920463;29;20199;-84
2022/01/19 03:28:22;;;;;;;11.05;5.70;;;;;;;-0.81;74.31;96146.69;4920081;29;20197;-84
2022/01/19 03:30:49;;;;;;;9.63;5.45;;;;;;;-0.83;73.31;96145.03;4920158;29;20200;-85
2022/01/19 03:33:16;;;;;;;11.55;4.95;;;;;;;-1.02;74.51;96142.81;4920366;29;20188;-84
2022/01/19 03:42:39;;;;;;;7.10;5.10;;;;;;;-1.16;75.15;96144.78;4919873;29;20211;-84
2022/01/19 03:45:09;;;;;;;11.40;5.65;;;;;;;-1.23;75.00;96145.78;4920188;29;20195;-84
2022/01/19 03:47:41;;;;;;;8.10;4.50;;;;;;;-1.24;75.39;96151.81;4920214;29;20195;-84
2022/01/19 03:50:10;;;;;;;8.45;5.93;;;;;;;-1.19;75.59;96154.31;4920995;29;20537;-84
2022/01/19 03:52:36;;;;;;;6.43;4.45;;;;;;;-1.16;75.87;96151.66;4920225;29;20297;-85
2022/01/19 03:55:47;;;;;;;6.43;4.95;;;;;;;-1.10;75.43;96157.56;4871789;29;20206;-84
2022/01/19 03:58:14;;;;;;;7.57;5.28;;;;;;;-1.13;74.88;96159.34;4900953;29;20197;-84
2022/01/19 04:00:46;;;;;;;5.95;4.97;;;;;;;-1.12;74.65;96164.47;4901040;29;20232;-84
2022/01/19 04:03:19;;;;;;;10.32;5.05;;;;;;;-1.14;74.84;96170.53;4901104;29;20616;-84
2022/01/19 04:05:56;;;;;;;14.73;8.48;;;;;;;-1.16;75.21;96160.25;4901332;29;20275;-84
2022/01/19 04:08:24;;;;;;;11.05;5.88;;;;;;;-1.19;74.53;96155.16;4900543;29;20192;-84
2022/01/19 04:10:50;;;;;;;7.25;5.00;;;;;;;-1.21;74.33;96162.06;4900839;29;20215;-84
2022/01/19 04:13:24;;;;;;;6.88;4.60;;;;;;;-1.13;75.15;96169.66;4901122;29;20220;-84
2022/01/19 04:15:53;;;;;;;9.38;5.47;;;;;;;-1.05;74.23;96178.94;4908797;29;20303;-84
2022/01/19 04:18:20;;;;;;;8.73;4.55;;;;;;;-1.00;73.99;96181.41;4909833;29;20208;-84
2022/01/19 04:20:51;;;;;;;5.93;5.32;;;;;;;-0.99;73.70;96183.09;4902542;29;20239;-84
2022/01/19 04:23:18;;;;;;;6.97;4.82;;;;;;;-0.96;73.46;96183.91;4900520;29;20280;-83
2022/01/19 04:25:45;;;;;;;7.03;5.40;;;;;;;-0.96;73.46;96176.16;4900357;29;20723;-84
2022/01/19 04:28:14;;;;;;;9.55;5.45;;;;;;;-0.97;73.52;96178.78;4901093;29;20687;-84
2022/01/19 04:34:05;;;;;;;13.75;6.35;;;;;;;-0.98;73.69;96184.81;4900532;29;20447;-84
2022/01/19 04:36:46;;;;;;;12.38;7.28;;;;;;;-0.94;73.83;96183.88;4901330;29;20227;-83
2022/01/19 04:43:43;;;;;;;11.90;6.68;;;;;;;-0.90;73.25;96194.97;4900996;29;20188;-84
2022/01/19 04:45:10;;;;;;;10.40;5.35;;;;;;;-1.00;73.42;96200.28;4899927;29;20192;-84
2022/01/19 05:02:57;;;;;;;5.68;5.00;;;;;;;-1.14;73.20;96209.16;4860538;29;20229;-84
2022/01/19 05:05:30;;;;;;;6.97;5.10;;;;;;;-1.27;73.49;96209.38;4860796;29;20205;-84
2022/01/19 05:08:03;;;;;;;8.10;5.70;;;;;;;-1.33;74.17;96213.78;4860972;29;20205;-84
2022/01/19 05:13:34;;;;;;;29.20;6.78;;;;;;;-1.27;74.09;96226.53;4823967;29;20239;-84
2022/01/19 05:22:46;;;;;;;6.38;5.53;;;;;;;-1.29;74.11;96212.84;4823783;29;20240;-86
2022/01/19 05:25:13;;;;;;;13.35;7.30;;;;;;;-1.26;74.16;96221.38;4825376;29;20226;-85
2022/01/19 05:27:40;;;;;;;11.07;7.35;;;;;;;-1.29;74.49;96225.72;4824352;29;20207;-83
2022/01/19 05:30:08;;;;;;;9.00;6.82;;;;;;;-1.30;74.25;96230.03;4823458;29;20207;-84
2022/01/19 05:32:35;;;;;;;15.07;6.78;;;;;;;-1.33;74.39;96234.38;4823278;29;20667;-86
2022/01/19 05:35:02;;;;;;;11.10;6.85;;;;;;;-1.30;74.80;96242.03;4823555;29;20195;-85
2022/01/19 05:37:30;;;;;;;13.07;7.60;;;;;;;-1.21;74.70;96243.59;4823312;29;20199;-85
2022/01/19 05:50:04;;;;;;;11.10;6.93;;;;;;;-1.04;74.67;96264.78;4909438;29;20234;-84
2022/01/19 05:52:31;;;;;;;7.75;5.00;;;;;;;-1.14;74.69;96256.38;4919578;29;20210;-83
2022/01/19 05:54:58;;;;;;;9.93;7.32;;;;;;;-1.16;75.45;96265.81;4901701;29;20203;-84
2022/01/19 05:57:25;;;;;;;11.40;7.60;;;;;;;-1.30;75.95;96265.22;4885145;29;20204;-83
2022/01/19 05:59:52;;;;;;;9.98;6.30;;;;;;;-1.32;76.58;96272.97;4885474;29;20574;-83
2022/01/19 06:02:19;;;;;;;9.52;6.05;;;;;;;-1.23;76.42;96278.84;4918063;29;20220;-82
2022/01/19 06:04:46;;;;;;;8.52;5.53;;;;;;;-1.25;77.65;96269.41;4917533;29;20659;-84
2022/01/19 06:07:14;;;;;;;10.75;6.78;;;;;;;-1.27;77.14;96268.59;4917755;29;20243;-84
2022/01/19 06:09:50;;;;;;;13.95;6.80;;;;;;;-1.30;77.73;96271.22;4901505;29;20203;-83
2022/01/19 06:12:17;;;;;;;16.13;7.53;;;;;;;-1.29;78.19;96259.19;4918593;29;20194;-83
2022/01/19 06:14:45;;;;;;;14.27;7.82;;;;;;;-1.31;78.65;96266.09;4918544;29;20204;-83
2022/01/19 06:17:15;;;;;;;12.40;6.97;;;;;;;-1.28;79.09;96268.63;4919177;29;20207;-83
2022/01/19 06:19:44;;;;;;;10.55;6.45;;;;;;;-1.31;78.80;96273.81;4918103;29;20291;-83
2022/01/19 06:22:11;;;;;;;15.10;8.55;;;;;;;-1.28;78.94;96273.75;4917656;29;20224;-84
2022/01/19 06:24:39;;;;;;;21.45;8.90;;;;;;;-1.27;78.39;96280.63;4917444;29;20661;-84
2022/01/19 06:27:07;;;;;;;14.50;7.20;;;;;;;-1.21;78.43;96285.66;4917924;29;20198;-84
2022/01/19 06:29:34;;;;;;;10.70;7.05;;;;;;;-1.27;79.67;96283.19;4917333;29;20681;-84
2022/01/19 06:32:01;;;;;;;14.60;8.43;;;;;;;-1.30;79.03;96286.66;4918067;29;20302;-84
2022/01/19 06:41:12;;;;;;;33.35;13.10;;;;;;;-1.16;78.81;96294.16;4920628;29;20623;-83
2022/01/19 06:43:39;;;;;;;48.10;19.60;;;;;;;-1.14;79.55;96296.72;4921167;29;20191;-83
2022/01/19 06:46:06;;;;;;;32.05;17.30;;;;;;;-1.10;79.42;96288.06;4921493;29;20200;-84
2022/01/19 06:48:33;;;;;;;39.30;19.45;;;;;;;-1.05;79.53;96291.41;4920960;29;20206;-84
2022/01/19 06:51:01;;;;;;;31.65;17.08;;;;;;;-1.05;79.13;96281.09;4921097;29;20199;-84
2022/01/19 06:53:28;;;;;;;16.30;10.52;;;;;;;-1.15;80.22;96280.44;4921143;29;20212;-84
2022/01/19 06:55:57;;;;;;;17.92;11.18;;;;;;;-1.09;79.89;96285.47;4921040;29;20457;-85
2022/01/19 06:58:26;;;;;;;21.80;11.02;;;;;;;-0.95;79.82;96292.94;4921101;29;20243;-82
2022/01/19 07:00:53;;;;;;;10.30;8.45;;;;;;;-0.83;79.24;96281.59;4921091;29;20297;-84
2022/01/19 07:03:20;;;;;;;8.73;7.82;;;;;;;-0.73;79.53;96285.69;4920650;29;20216;-85
2022/01/19 07:05:48;;;;;;;23.73;10.43;;;;;;;-0.61;78.88;96285.44;4920785;29;20210;-82
2022/01/19 07:08:15;;;;;;;20.48;9.40;;;;;;;-0.53;78.13;96285.31;4921409;29;20195;-85
2022/01/19 07:10:43;;;;;;;18.05;10.65;;;;;;;-0.47;78.05;96269.72;4935304;29;20207;-82
2022/01/19 07:13:10;;;;;;;14.77;10.27;;;;;;;-0.36;78.11;96270.34;4940075;29;20215;-82
2022/01/19 07:15:40;;;;;;;15.45;10.70;;;;;;;-0.24;78.50;96254.66;4901611;29;20195;-82
2022/01/19 07:18:07;;;;;;;9.40;7.72;;;;;;;-0.13;79.31;96252.69;4901258;29;20191;-83
2022/01/19 07:20:34;;;;;;;19.77;14.07;;;;;;;-0.03;78.15;96266.22;4901845;29;20852;-84
2022/01/19 07:23:02;;;;;;;18.38;10.40;;;;;;;0.04;77.59;96262.66;4902336;29;20596;-83
2022/01/19 07:25:29;;;;;;;14.77;10.60;;;;;;;0.12;77.39;96259.88;4901419;29;20204;-84
2022/01/19 07:27:56;;;;;;;28.95;10.50;;;;;;;0.26;82.08;96257.84;4909881;29;20204;-82
2022/01/19 07:30:24;;;;;;;18.20;9.27;;;;;;;0.42;80.42;96263.50;4939669;29;20187;-81
2022/01/19 07:32:53;;;;;;;29.15;12.57;;;;;;;0.67;78.57;96258.63;4940009;29;20197;-83
2022/01/19 07:35:20;;;;;;;15.80;9.98;;;;;;;0.73;75.48;96261.03;4939430;29;20190;-85
2022/01/19 07:37:47;;;;;;;22.45;8.88;;;;;;;0.71;75.08;96266.25;4939308;29;20211;-82
2022/01/19 07:40:14;;;;;;;33.65;10.75;;;;;;;0.70;77.45;96274.03;4938741;29;20198;-82
2022/01/19 07:42:41;;;;;;;16.63;7.50;;;;;;;0.74;75.35;96262.75;4939615;29;20577;-83
2022/01/19 07:45:09;;;;;;;16.15;9.23;;;;;;;0.73;75.50;96268.78;4939453;29;20555;-81
2022/01/19 07:54:21;;;;;;;15.52;7.55;;;;;;;0.75;74.58;96257.53;4937801;29;20243;-81
2022/01/19 07:56:48;;;;;;;13.77;8.65;;;;;;;0.67;75.58;96259.47;4938565;29;21050;-81
2022/01/19 07:59:15;;;;;;;12.13;9.00;;;;;;;0.79;80.31;96261.72;4939232;29;20241;-82
2022/01/19 08:01:42;;;;;;;18.05;9.25;;;;;;;0.78;76.38;96261.78;4939299;29;20230;-82
2022/01/19 08:04:09;;;;;;;16.80;10.23;;;;;;;0.76;75.83;96266.97;4938934;29;20197;-81
2022/01/19 08:06:36;;;;;;;19.83;11.35;;;;;;;0.82;77.25;96258.22;4929242;29;20208;-82
2022/01/19 08:09:04;;;;;;;13.10;8.18;;;;;;;0.98;75.18;96264.72;4938842;29;20193;-85
2022/01/19 08:11:33;;;;;;;11.55;8.40;;;;;;;1.04;75.38;96263.72;4938798;29;20266;-84
2022/01/19 08:14:00;;;;;;;12.80;8.50;;;;;;;1.17;74.18;96271.13;4939167;29;20280;-84
2022/01/19 08:16:27;;;;;;;20.77;9.30;;;;;;;1.24;71.78;96271.81;4939120;29;20221;-85
2022/01/19 08:18:56;;;;;;;11.07;8.25;;;;;;;1.27;75.02;96265.69;4939070;29;20990;-84
2022/01/19 08:21:23;;;;;;;15.38;10.75;;;;;;;1.33;71.94;96262.94;4938368;29;20233;-84
2022/01/19 08:23:50;;;;;;;9.20;7.10;;;;;;;1.42;70.14;96265.28;4938034;29;20313;-83
2022/01/19 08:26:17;;;;;;;9.95;8.63;;;;;;;1.36;71.09;96265.44;4904985;29;20208;-84
2022/01/19 08:28:45;;;;;;;12.18;9.02;;;;;;;1.34;69.95;96275.00;4938478;29;20211;-84
2022/01/19 08:31:14;;;;;;;13.00;8.85;;;;;;;1.45;72.35;96275.56;4938860;29;20205;-83
2022/01/19 08:33:41;;;;;;;14.13;8.70;;;;;;;1.53;70.85;96268.44;4938689;29;20213;-83
2022/01/19 08:36:08;;;;;;;30.77;10.27;;;;;;;1.56;69.74;96263.19;4938189;29;20439;-81
2022/01/19 08:38:35;;;;;;;22.80;10.95;;;;;;;1.63;68.89;96269.88;4938694;29;20435;-81
2022/01/19 08:41:02;;;;;;;16.27;10.15;;;;;;;1.65;69.52;96259.47;4937895;29;20213;-81
2022/01/19 08:43:29;;;;;;;13.13;8.15;;;;;;;1.77;69.47;96257.41;4937954;29;20237;-81
2022/01/19 08:45:57;;;;;;;10.95;6.70;;;;;;;1.78;68.45;96261.69;4937904;29;20191;-84
2022/01/19 08:48:25;;;;;;;11.73;7.40;;;;;;;1.76;68.49;96263.47;4937798;29;20191;-83
2022/01/19 08:50:52;;;;;;;12.90;8.57;;;;;;;1.74;67.43;96256.66;4938873;29;20238;-83
2022/01/19 08:53:19;;;;;;;7.63;6.83;;;;;;;1.68;67.62;96256.81;4945953;29;20446;-82
2022/01/19 08:55:47;;;;;;;16.77;9.03;;;;;;;1.63;68.80;96250.91;4948407;29;20461;-83
2022/01/19 08:58:14;;;;;;;28.80;15.47;;;;;;;1.69;66.78;96253.31;4940673;29;20485;-82
2022/01/19 09:00:42;;;;;;;18.45;10.82;;;;;;;1.75;67.47;96256.59;4937653;29;20486;-83
2022/01/19 09:03:10;;;;;;;12.70;7.43;;;;;;;1.57;66.05;96256.28;4937408;29;20221;-82
2022/01/19 09:08:59;;;;;;;19.13;7.95;;;;;;;2.34;99.07;96238.44;4918857;29;20179;-84
2022/01/19 09:11:26;;;;;;;8.93;8.03;;;;;;;2.44;71.05;96251.97;4918805;29;20677;-83
2022/01/19 09:13:53;;;;;;;17.40;7.35;;;;;;;2.25;66.28;96254.25;4918951;29;20896;-84
2022/01/19 09:16:20;;;;;;;10.90;7.43;;;;;;;2.11;65.42;96235.72;4885926;29;20219;-83
2022/01/19 09:18:49;;;;;;;17.67;7.43;;;;;;;2.16;67.91;96236.41;4918600;29;20543;-84
2022/01/19 09:21:15;;;;;;;13.23;6.83;;;;;;;1.97;65.35;96232.66;4918681;29;20469;-83
2022/01/19 09:23:42;;;;;;;19.90;10.40;;;;;;;2.04;65.26;96226.44;4918187;29;20480;-83
2022/01/19 09:26:09;;;;;;;9.47;6.73;;;;;;;2.12;64.54;96227.06;4918373;29;20459;-83
2022/01/19 09:28:36;;;;;;;17.50;9.07;;;;;;;2.21;66.43;96226.75;4885092;29;20527;-83
2022/01/19 09:31:10;;;;;;;13.33;8.23;;;;;;;2.25;64.56;96214.56;4918368;29;20455;-83
2022/01/19 09:33:37;;;;;;;10.60;7.97;;;;;;;2.36;73.71;96215.09;4917964;29;20432;-84
2022/01/19 09:36:18;;;;;;;17.60;7.60;;;;;;;2.33;64.79;96217.78;4918207;29;20459;-83
2022/01/19 09:38:46;;;;;;;15.77;8.23;;;;;;;2.35;66.35;96203.88;4917836;29;20448;-84
2022/01/19 09:41:13;;;;;;;11.40;6.93;;;;;;;2.29;64.22;96198.88;4918513;29;20571;-83
2022/01/19 09:43:40;;;;;;;10.53;7.93;;;;;;;2.33;63.58;96210.84;4918131;29;20549;-84
2022/01/19 09:46:10;;;;;;;17.00;7.77;;;;;;;2.34;64.01;96202.19;4917927;29;20471;-84
2022/01/19 09:48:37;;;;;;;12.37;7.10;;;;;;;2.42;66.85;96199.34;4918089;29;20516;-82
2022/01/19 09:51:04;;;;;;;13.30;7.13;;;;;;;2.46;64.62;96186.25;4917901;29;20463;-83
2022/01/19 09:53:33;;;;;;;13.17;8.93;;;;;;;2.57;63.62;96182.44;4918299;29;20439;-84
2022/01/19 09:56:03;;;;;;;17.70;8.23;;;;;;;2.61;62.56;96181.47;4918548;29;20462;-84
2022/01/19 09:58:30;;;;;;;20.93;9.63;;;;;;;2.67;63.17;96189.03;4917903;29;20472;-84
2022/01/19 10:00:57;;;;;;;15.03;10.97;;;;;;;2.74;61.95;96183.59;4884979;29;20464;-83
2022/01/19 10:03:26;;;;;;;19.20;8.90;;;;;;;2.92;62.07;96187.31;4918221;29;20623;-83
2022/01/19 10:06:02;;;;;;;20.03;9.57;;;;;;;3.08;60.94;96188.47;4921573;29;20446;-83
2022/01/19 10:08:38;;;;;;;13.90;9.53;;;;;;;3.15;62.88;96186.50;4936286;29;20514;-84
2022/01/19 10:11:19;;;;;;;17.33;9.57;;;;;;;3.18;60.07;96181.25;4937124;29;20439;-83
2022/01/19 10:22:50;;;;;;;8.90;7.70;;;;;;;2.74;62.68;96172.38;4917547;29;20534;-83
2022/01/19 10:25:19;;;;;;;20.20;8.63;;;;;;;2.86;66.14;96173.69;4885458;29;20463;-85
2022/01/19 10:27:46;;;;;;;15.63;8.90;;;;;;;2.80;63.46;96164.41;4917505;29;20455;-82
2022/01/19 10:30:25;;;;;;;12.20;9.07;;;;;;;2.76;62.35;96163.66;4900596;29;20463;-86
2022/01/19 10:32:56;;;;;;;12.40;7.27;;;;;;;2.65;62.94;96165.78;4884983;29;20435;-87
2022/01/19 10:35:29;;;;;;;15.83;9.20;;;;;;;2.63;63.74;96171.91;4917832;29;20435;-85
2022/01/19 10:38:15;;;;;;;14.30;8.30;;;;;;;2.51;64.20;96159.34;4918093;29;20539;-83
2022/01/19 10:41:02;;;;;;;21.87;9.70;;;;;;;2.46;63.12;96149.13;4917820;29;20447;-84
2022/01/19 10:50:15;;;;;;;11.17;8.47;;;;;;;2.76;62.56;96139.50;4917241;29;20400;-83
2022/01/19 10:52:44;;;;;;;16.57;9.90;;;;;;;2.80;63.88;96126.38;4917333;29;20939;-84
2022/01/19 10:55:14;;;;;;;14.13;8.70;;;;;;;2.88;66.58;96120.91;4918841;29;20538;-84
2022/01/19 10:57:43;;;;;;;19.83;10.40;;;;;;;2.94;63.81;96114.69;4919787;29;20484;-84
2022/01/19 11:00:12;;;;;;;11.10;7.40;;;;;;;2.96;62.05;96108.53;4917584;29;20452;-83
2022/01/19 11:02:40;;;;;;;11.50;9.23;;;;;;;3.08;61.88;96107.25;4917988;29;20486;-83
2022/01/19 11:08:30;;;;;;;11.13;7.00;;;;;;;3.24;60.24;96104.97;4897887;29;20467;-84
2022/01/19 11:11:01;;;;;;;11.70;8.53;;;;;;;3.30;59.94;96094.34;4899057;29;20445;-84
2022/01/19 11:13:32;;;;;;;21.80;8.27;;;;;;;3.27;61.10;96087.53;4898595;29;20442;-83
2022/01/19 11:16:00;;;;;;;16.90;9.37;;;;;;;3.36;59.78;96081.16;4900676;29;20475;-85
2022/01/19 11:18:29;;;;;;;18.00;9.27;;;;;;;3.47;58.56;96089.38;4916983;29;20456;-84
2022/01/19 11:20:58;;;;;;;18.10;11.93;;;;;;;3.38;60.01;96085.38;4917666;29;20455;-84
2022/01/19 11:23:34;;;;;;;8.47;7.30;;;;;;;3.36;58.35;96070.78;4920571;29;20834;-85
2022/01/19 11:26:05;;;;;;;13.17;8.73;;;;;;;3.40;58.97;96068.00;4920425;29;20957;-85
2022/01/19 11:28:36;;;;;;;23.53;10.13;;;;;;;3.48;58.86;96072.06;4920636;29;20518;-85
2022/01/19 11:31:07;;;;;;;12.87;7.70;;;;;;;3.58;58.81;96065.63;4920970;29;20805;-84
2022/01/19 11:33:41;;;;;;;19.53;10.27;;;;;;;3.66;58.78;96069.59;4920670;29;20476;-83
2022/01/19 11:36:20;;;;;;;17.03;8.03;;;;;;;3.69;58.41;96060.84;4920500;29;20437;-85
2022/01/19 11:38:49;;;;;;;11.23;9.57;;;;;;;3.79;58.89;96072.56;4934534;29;20461;-86
2022/01/19 11:41:39;;;;;;;15.80;9.37;;;;;;;3.78;58.64;96077.84;4937196;29;20454;-85
2022/01/19 11:44:10;;;;;;;15.30;8.83;;;;;;;3.72;60.52;96068.50;4938959;29;20496;-84
2022/01/19 11:46:40;;;;;;;13.40;7.63;;;;;;;3.68;60.08;96072.13;4939919;29;20531;-86
2022/01/19 11:49:10;;;;;;;16.10;9.13;;;;;;;3.56;60.46;96064.84;4939117;29;20934;-81
2022/01/19 11:51:39;;;;;;;24.10;11.73;;;;;;;3.73;61.52;96063.25;4938627;29;20463;-81
2022/01/19 11:54:10;;;;;;;12.90;9.83;;;;;;;3.82;59.70;96053.44;4938966;29;20420;-81
2022/01/19 11:57:11;;;;;;;18.80;10.10;;;;;;;3.87;59.33;96059.28;4939157;29;20444;-82
2022/01/19 12:00:09;;;;;;;25.97;10.80;;;;;;;3.84;60.50;96047.28;4861485;29;20490;-87
2022/01/19 12:02:39;;;;;;;15.70;9.43;;;;;;;3.78;59.83;96049.28;4862119;29;20452;-82
2022/01/19 12:05:27;;;;;;;15.13;8.80;;;;;;;3.77;59.75;96050.19;4861808;29;20536;-82
2022/01/19 12:07:57;;;;;;;17.77;8.43;;;;;;;3.72;59.22;96046.00;4829681;29;21996;-80
2022/01/19 12:10:46;;;;;;;14.37;8.53;;;;;;;3.77;58.85;96039.81;4861545;29;20436;-80
2022/01/19 12:16:26;;;;;;;13.03;8.93;;;;;;;3.89;59.58;96034.94;4804210;29;20434;-81
2022/01/19 12:18:55;;;;;;;16.30;8.20;;;;;;;3.98;61.08;96028.53;4788494;29;20457;-83
2022/01/19 12:21:43;;;;;;;16.93;8.70;;;;;;;4.07;58.05;96024.72;4788337;29;20457;-83
2022/01/19 12:24:26;;;;;;;14.13;9.33;;;;;;;3.97;58.24;96021.66;4789045;29;20496;-87
2022/01/19 12:26:57;;;;;;;17.20;9.90;;;;;;;3.78;58.18;96012.94;4788495;30;20967;-86
2022/01/19 12:29:43;;;;;;;16.67;8.97;;;;;;;3.83;58.12;96016.19;4788838;30;20459;-86
2022/01/19 12:32:42;;;;;;;12.83;8.63;;;;;;;3.95;57.92;96007.88;4787732;30;20451;-86
2022/01/19 12:35:16;;;;;;;18.60;10.10;;;;;;;3.97;60.38;96003.47;4830363;29;20464;-84
2022/01/19 12:37:46;;;;;;;15.60;9.17;;;;;;;3.90;58.31;96002.03;4861174;29;20456;-85
2022/01/19 12:40:44;;;;;;;43.90;12.40;;;;;;;4.08;60.31;96000.44;4861000;29;20443;-84
2022/01/19 12:43:28;;;;;;;19.33;11.20;;;;;;;4.03;59.08;95998.84;4860895;29;21041;-84
2022/01/19 12:45:55;;;;;;;15.50;11.10;;;;;;;3.98;61.11;95990.41;4860908;29;20460;-84
2022/01/19 12:48:45;;;;;;;22.60;9.80;;;;;;;4.11;59.83;95993.38;4860739;29;20451;-84
2022/01/19 12:51:39;;;;;;;19.90;12.53;;;;;;;4.12;61.33;95981.22;4860699;29;20869;-84
2022/01/19 12:54:08;;;;;;;25.93;12.63;;;;;;;4.08;62.32;95982.28;4831263;29;20504;-84
2022/01/19 12:56:35;;;;;;;18.33;12.20;;;;;;;4.02;59.32;95985.94;4842163;29;20932;-84
2022/01/19 12:59:07;;;;;;;18.47;12.70;;;;;;;3.91;58.85;95976.00;4828571;29;20847;-84
2022/01/19 13:01:35;;;;;;;21.50;10.10;;;;;;;3.90;60.04;95970.88;4860664;29;20464;-83
2022/01/19 13:04:03;;;;;;;27.40;12.57;;;;;;;3.85;59.73;95970.22;4860738;29;20475;-84
2022/01/19 13:06:33;;;;;;;24.80;14.67;;;;;;;3.91;62.13;95960.44;4852688;29;20445;-85
2022/01/19 13:09:09;;;;;;;19.43;11.10;;;;;;;3.97;62.73;95967.13;4841948;29;20438;-85
2022/01/19 13:11:39;;;;;;;20.50;11.53;;;;;;;3.98;60.98;95967.06;4842224;29;20527;-85
2022/01/19 13:14:08;;;;;;;21.20;12.70;;;;;;;3.98;60.75;95964.44;4842117;29;20462;-85
2022/01/19 13:16:38;;;;;;;21.33;10.93;;;;;;;3.98;60.86;95961.00;4842280;29;20574;-86
2022/01/19 13:19:10;;;;;;;19.37;10.27;;;;;;;3.96;59.45;95950.69;4841905;29;20538;-85
2022/01/19 13:21:37;;;;;;;23.23;10.40;;;;;;;3.90;59.96;95940.56;4841683;29;20538;-85
2022/01/19 13:24:09;;;;;;;25.20;12.33;;;;;;;3.87;61.04;95940.69;4841852;29;20495;-85
2022/01/19 13:26:42;;;;;;;25.30;10.60;;;;;;;3.89;62.67;95935.44;4842123;29;20457;-86
2022/01/19 13:29:28;;;;;;;15.17;9.43;;;;;;;3.89;60.84;95936.28;4841584;29;20441;-85
2022/01/19 13:32:01;;;;;;;17.60;10.90;;;;;;;3.83;61.27;95936.53;4916908;29;20444;-84
2022/01/19 13:34:31;;;;;;;19.50;11.30;;;;;;;3.84;61.95;95938.25;4933254;29;20456;-84
2022/01/19 13:37:01;;;;;;;24.60;12.73;;;;;;;3.91;61.55;95938.81;4904166;29;20849;-83
2022/01/19 13:39:33;;;;;;;23.60;13.80;;;;;;;3.96;61.79;95942.06;4918166;29;20911;-84
2022/01/19 13:42:02;;;;;;;29.30;13.63;;;;;;;3.89;60.82;95940.63;4918502;29;20452;-85
2022/01/19 13:48:03;;;;;;;33.60;13.40;;;;;;;3.87;64.28;95921.69;4917988;29;20435;-81
2022/01/19 13:50:32;;;;;;;27.10;15.00;;;;;;;3.90;62.47;95918.97;4918147;29;20767;-83
2022/01/19 13:53:00;;;;;;;22.80;14.37;;;;;;;3.89;61.38;95928.50;4917864;29;20442;-83
2022/01/19 13:55:28;;;;;;;16.80;11.00;;;;;;;3.87;60.51;95916.50;4918023;29;20472;-82
2022/01/19 13:58:05;;;;;;;15.17;10.43;;;;;;;3.87;60.43;95916.50;4918247;29;20484;-83
2022/01/19 14:00:32;;;;;;;21.90;11.77;;;;;;;3.82;60.01;95914.09;4917710;29;20461;-82
2022/01/19 14:03:03;;;;;;;28.10;13.70;;;;;;;3.84;60.78;95907.09;4917731;29;20955;-83
2022/01/19 14:05:41;;;;;;;20.50;13.73;;;;;;;3.86;60.83;95913.06;4917234;29;20496;-82
2022/01/19 14:08:08;;;;;;;22.03;13.30;;;;;;;3.76;61.04;95918.66;4917158;29;20454;-82
2022/01/19 14:10:47;;;;;;;31.63;13.67;;;;;;;3.77;63.39;95904.81;4917307;29;20468;-81
2022/01/19 14:13:27;;;;;;;35.60;16.40;;;;;;;3.79;62.16;95903.84;4917094;29;20495;-82
2022/01/19 14:15:54;;;;;;;26.23;14.80;;;;;;;3.83;64.97;95900.22;4916836;29;20450;-83
2022/01/19 14:18:21;;;;;;;27.13;13.60;;;;;;;3.89;63.08;95909.47;4917090;29;20464;-83
2022/01/19 14:21:07;;;;;;;25.20;14.50;;;;;;;3.83;62.55;95908.00;4884286;29;20460;-83
2022/01/19 14:23:34;;;;;;;27.50;14.37;;;;;;;3.85;62.34;95913.13;4915303;29;20448;-82
2022/01/19 14:26:09;;;;;;;22.83;13.70;;;;;;;3.70;62.15;95915.44;4917099;29;20452;-82
2022/01/19 14:28:39;;;;;;;29.00;16.93;;;;;;;3.67;63.21;95912.97;4917426;29;20431;-82
2022/01/19 14:31:12;;;;;;;30.83;11.30;;;;;;;3.57;65.51;95913.41;4916895;29;20445;-82
2022/01/19 14:33:48;;;;;;;21.20;10.90;;;;;;;3.46;64.26;95906.06;4917589;29;20461;-82
2022/01/19 14:36:23;;;;;;;21.97;12.73;;;;;;;3.39;62.55;95908.06;4868615;29;20516;-82
2022/01/19 14:38:58;;;;;;;22.93;12.07;;;;;;;3.37;62.80;95906.44;4917742;29;20561;-82
2022/01/19 14:41:30;;;;;;;29.67;12.57;;;;;;;3.28;63.08;95901.63;4917833;29;20444;-82
2022/01/19 14:47:36;;;;;;;29.43;17.70;;;;;;;3.06;63.32;95902.47;4916303;29;20496;-82
2022/01/19 14:50:20;;;;;;;24.83;15.17;;;;;;;2.97;63.71;95897.66;4921485;29;20518;-82
2022/01/19 14:52:50;;;;;;;26.70;12.87;;;;;;;2.95;63.66;95896.03;4936026;29;20465;-82
2022/01/19 14:55:20;;;;;;;25.23;14.40;;;;;;;2.97;63.58;95902.84;4935277;29;20445;-81
2022/01/19 14:57:49;;;;;;;23.50;12.60;;;;;;;3.06;63.64;95902.47;4938517;29;20237;-82
2022/01/19 15:00:17;;;;;;;30.33;13.60;;;;;;;3.10;63.53;95901.44;4939948;29;20470;-85
2022/01/19 15:02:46;;;;;;;28.13;15.83;;;;;;;3.09;64.29;95893.72;4939995;29;20473;-82
2022/01/19 15:05:13;;;;;;;29.97;16.20;;;;;;;3.09;63.58;95884.19;4939818;29;20485;-81
2022/01/19 15:07:40;;;;;;;32.93;16.20;;;;;;;3.06;63.28;95886.06;4906517;29;20463;-82
2022/01/19 15:10:10;;;;;;;27.27;13.70;;;;;;;2.97;64.47;95887.28;4939606;29;20436;-81
2022/01/19 15:22:42;;;;;;;37.13;22.03;;;;;;;2.84;64.22;95878.28;4938974;29;20434;-82